Search for airport 
image banner adimage banner ad
image banner ad

OREZ - Embassy Heliport

Located in , Iraq

ICAO - , IATA -

Data provided by Airmate  

General information

Coordinates: N33°17'47" E44°22'21"
Elevation is feet MSL.
 
Rated:
View ratings: [VIEW]


View others Airports in Baghdad Governorate

Operational data

Open for public use
Current time UTC:
Current local time:
METAR: ORBI 122300Z 22003KT 190V250 CAVOK 30/13 Q0999
TAF: TAF ORBI 121700Z 1218/1318 29008KT CAVOK
View NOTAMs / SUP AIP / TFR affecting this airport [VIEW]
Communications frequencies: [VIEW]

Runways:

Airport contact information

Address: Iraq

Satellite view of OREZ